Cenka — TCTG5 — position and weather

sailwx.info

Track history (hours):
 
Tides and Currents Weather Stations Pressure Air Temp Water Temp Dewpoint Dewpoint Depression Visibility Wind Speed Wind Dir Waves Ship Positions

Cenka

Last reported at 2017-Aug-21 10:29 UTC. Time now 2017-Aug-22 01:22 UTC.
Position N 42°60' E 031°29'.

Length 150 m; draft 4.9 m.

Type: Passenger vessel. MMSI: 271002610.

Date/timePositionNaut miles runAvg speedWind from/ knotsBaromVisibWave heightAir tempDewpointWater temp
2017-Aug-21 10:29N 42°60' E 031°29'613.4
2017-Aug-21 10:00N 43°06' E 031°27'713.5
2017-Aug-21 09:31N 43°12' E 031°26'813.6
2017-Aug-21 08:56N 43°20' E 031°24'613.6
2017-Aug-21 08:30N 43°26' E 031°23'713.7
2017-Aug-21 08:00N 43°33' E 031°21'713.6
2017-Aug-21 07:30N 43°39' E 031°20'713.6
2017-Aug-21 07:01N 43°46' E 031°19'713.5
2017-Aug-21 06:30N 43°53' E 031°18'1913.6
2017-Aug-21 05:08N 44°11' E 031°15'1713.8
2017-Aug-21 03:53N 44°29' E 031°11'513.8
2017-Aug-21 03:30N 44°34' E 031°10'713.5
2017-Aug-21 03:01N 44°40' E 031°09'913.5
2017-Aug-21 02:22N 44°49' E 031°07'513.5
2017-Aug-21 02:00N 44°54' E 031°06'713.5
2017-Aug-21 01:28N 45°01' E 031°05'613.3
2017-Aug-21 01:01N 45°07' E 031°03'713.2
2017-Aug-21 00:30N 45°13' E 031°02'713.2
2017-Aug-21 00:00N 45°20' E 030°60'713.4
2017-Aug-20 23:30N 45°26' E 030°58'713.5
2017-Aug-20 23:01N 45°33' E 030°57'713.6
2017-Aug-20 22:31N 45°40' E 030°55'713.6
2017-Aug-20 22:01N 45°46' E 030°53'713.7
2017-Aug-20 21:30N 45°53' E 030°51'713.8
2017-Aug-20 21:00N 46°00' E 030°50'1113.8
2017-Aug-20 20:12N 46°11' E 030°47'313.6
2017-Aug-20 20:00N 46°14' E 030°46'612.2
2017-Aug-20 19:31N 46°19' E 030°42'2 5.0
2017-Aug-20 19:00N 46°21' E 030°39'0 0.0
2017-Aug-20 12:08N 46°21' E 030°39'0 0.0
2017-Aug-20 11:59N 46°21' E 030°39'0 0.0
2017-Aug-20 10:56N 46°21' E 030°39'0 0.0
2017-Aug-20 10:24N 46°21' E 030°39'0 0.0
2017-Aug-20 09:56N 46°21' E 030°39'0 0.0
2017-Aug-20 09:27N 46°21' E 030°39'0 0.0
2017-Aug-20 08:03N 46°21' E 030°39'0 0.0
2017-Aug-20 06:48N 46°21' E 030°39'0 0.0
2017-Aug-20 05:49N 46°21' E 030°39'0 0.0
2017-Aug-20 04:56N 46°21' E 030°39'0 0.0
2017-Aug-20 04:07N 46°21' E 030°39'0 0.1
2017-Aug-20 04:01N 46°21' E 030°39'0 0.0
2017-Aug-20 03:31N 46°21' E 030°39'0 0.0
2017-Aug-20 03:01N 46°21' E 030°39'0 0.0
2017-Aug-20 02:30N 46°21' E 030°39'0 0.0
2017-Aug-20 02:01N 46°21' E 030°39'0 0.0
2017-Aug-20 01:31N 46°21' E 030°39'0 0.0
2017-Aug-20 01:00N 46°21' E 030°39'0 0.0
2017-Aug-20 00:30N 46°21' E 030°39'0 0.0
2017-Aug-20 00:01N 46°21' E 030°39'0 0.0
2017-Aug-19 23:29N 46°21' E 030°39'0 0.0
2017-Aug-19 22:59N 46°21' E 030°39'0 0.0
2017-Aug-19 22:23N 46°21' E 030°39'0 0.0
2017-Aug-19 21:59N 46°21' E 030°39'0 0.0
2017-Aug-19 20:38N 46°21' E 030°39'0 0.0
2017-Aug-19 20:15N 46°21' E 030°39'0 0.0
2017-Aug-19 19:37N 46°21' E 030°39'0 0.0
2017-Aug-19 19:22N 46°21' E 030°39'0 0.0
2017-Aug-19 18:57N 46°21' E 030°39'0 0.0
2017-Aug-19 18:26N 46°21' E 030°39'0 0.4
2017-Aug-19 18:01N 46°21' E 030°39'3 5.7
2017-Aug-19 17:31N 46°19' E 030°43'5 9.5
2017-Aug-19 17:01N 46°15' E 030°46'1013.5
2017-Aug-19 16:15N 46°04' E 030°49'  
2017-Aug-16 17:26N 46°12' E 030°42'9 0.2
2017-Aug-14 20:57N 46°21' E 030°39'0 0.0
2017-Aug-14 20:19N 46°21' E 030°39'0 0.0
2017-Aug-14 19:53N 46°21' E 030°39'0 0.0
2017-Aug-14 18:44N 46°21' E 030°39'0 1.4
2017-Aug-14 18:30N 46°20' E 030°39'4 7.4
2017-Aug-14 18:00N 46°18' E 030°44'510.2
2017-Aug-14 17:30N 46°13' E 030°46'  
Track history (hours):
 
Tides and Currents Weather Stations Pressure Air Temp Water Temp Dewpoint Dewpoint Depression Visibility Wind Speed Wind Dir Waves Ship Positions

Cenka

Last reported at 2017-Aug-21 10:29 UTC. Time now 2017-Aug-22 01:22 UTC.
Position N 42°60' E 031°29'.

Length 150 m; draft 4.9 m.

Type: Passenger vessel. MMSI: 271002610.

Date/timePositionNaut miles runAvg speedWind from/ knotsBaromVisibWave heightAir tempDewpointWater temp
2017-Aug-21 10:29N 42°60' E 031°29'613.4
2017-Aug-21 10:00N 43°06' E 031°27'713.5
2017-Aug-21 09:31N 43°12' E 031°26'813.6
2017-Aug-21 08:56N 43°20' E 031°24'613.6
2017-Aug-21 08:30N 43°26' E 031°23'713.7
2017-Aug-21 08:00N 43°33' E 031°21'713.6
2017-Aug-21 07:30N 43°39' E 031°20'713.6
2017-Aug-21 07:01N 43°46' E 031°19'713.5
2017-Aug-21 06:30N 43°53' E 031°18'1913.6
2017-Aug-21 05:08N 44°11' E 031°15'1713.8
2017-Aug-21 03:53N 44°29' E 031°11'513.8
2017-Aug-21 03:30N 44°34' E 031°10'713.5
2017-Aug-21 03:01N 44°40' E 031°09'913.5
2017-Aug-21 02:22N 44°49' E 031°07'513.5
2017-Aug-21 02:00N 44°54' E 031°06'713.5
2017-Aug-21 01:28N 45°01' E 031°05'613.3
2017-Aug-21 01:01N 45°07' E 031°03'713.2
2017-Aug-21 00:30N 45°13' E 031°02'713.2
2017-Aug-21 00:00N 45°20' E 030°60'713.4
2017-Aug-20 23:30N 45°26' E 030°58'713.5
2017-Aug-20 23:01N 45°33' E 030°57'713.6
2017-Aug-20 22:31N 45°40' E 030°55'713.6
2017-Aug-20 22:01N 45°46' E 030°53'713.7
2017-Aug-20 21:30N 45°53' E 030°51'713.8
2017-Aug-20 21:00N 46°00' E 030°50'1113.8
2017-Aug-20 20:12N 46°11' E 030°47'313.6
2017-Aug-20 20:00N 46°14' E 030°46'612.2
2017-Aug-20 19:31N 46°19' E 030°42'2 5.0
2017-Aug-20 19:00N 46°21' E 030°39'0 0.0
2017-Aug-20 12:08N 46°21' E 030°39'0 0.0
2017-Aug-20 11:59N 46°21' E 030°39'0 0.0
2017-Aug-20 10:56N 46°21' E 030°39'0 0.0
2017-Aug-20 10:24N 46°21' E 030°39'0 0.0
2017-Aug-20 09:56N 46°21' E 030°39'0 0.0
2017-Aug-20 09:27N 46°21' E 030°39'0 0.0
2017-Aug-20 08:03N 46°21' E 030°39'0 0.0
2017-Aug-20 06:48N 46°21' E 030°39'0 0.0
2017-Aug-20 05:49N 46°21' E 030°39'0 0.0
2017-Aug-20 04:56N 46°21' E 030°39'0 0.0
2017-Aug-20 04:07N 46°21' E 030°39'0 0.1
2017-Aug-20 04:01N 46°21' E 030°39'0 0.0
2017-Aug-20 03:31N 46°21' E 030°39'0 0.0
2017-Aug-20 03:01N 46°21' E 030°39'0 0.0
2017-Aug-20 02:30N 46°21' E 030°39'0 0.0
2017-Aug-20 02:01N 46°21' E 030°39'0 0.0
2017-Aug-20 01:31N 46°21' E 030°39'0 0.0
2017-Aug-20 01:00N 46°21' E 030°39'0 0.0
2017-Aug-20 00:30N 46°21' E 030°39'0 0.0
2017-Aug-20 00:01N 46°21' E 030°39'0 0.0
2017-Aug-19 23:29N 46°21' E 030°39'0 0.0
2017-Aug-19 22:59N 46°21' E 030°39'0 0.0
2017-Aug-19 22:23N 46°21' E 030°39'0 0.0
2017-Aug-19 21:59N 46°21' E 030°39'0 0.0
2017-Aug-19 20:38N 46°21' E 030°39'0 0.0
2017-Aug-19 20:15N 46°21' E 030°39'0 0.0
2017-Aug-19 19:37N 46°21' E 030°39'0 0.0
2017-Aug-19 19:22N 46°21' E 030°39'0 0.0
2017-Aug-19 18:57N 46°21' E 030°39'0 0.0
2017-Aug-19 18:26N 46°21' E 030°39'0 0.4
2017-Aug-19 18:01N 46°21' E 030°39'3 5.7
2017-Aug-19 17:31N 46°19' E 030°43'5 9.5
2017-Aug-19 17:01N 46°15' E 030°46'1013.5
2017-Aug-19 16:15N 46°04' E 030°49'  
2017-Aug-16 17:26N 46°12' E 030°42'9 0.2
2017-Aug-14 20:57N 46°21' E 030°39'0 0.0
2017-Aug-14 20:19N 46°21' E 030°39'0 0.0
2017-Aug-14 19:53N 46°21' E 030°39'0 0.0
2017-Aug-14 18:44N 46°21' E 030°39'0 1.4
2017-Aug-14 18:30N 46°20' E 030°39'4 7.4
2017-Aug-14 18:00N 46°18' E 030°44'510.2
2017-Aug-14 17:30N 46°13' E 030°46'  

Dump ship's entire track history